sensor_id;sensor_type;location;lat;lon;timestamp;P1;durP1;ratioP1;P2;durP2;ratioP2
73693;SDS011;61997;53.974;11.670;2023-07-31T00:01:41;5.88;;;2.78;;
73693;SDS011;61997;53.974;11.670;2023-07-31T00:04:18;3.60;;;2.40;;
73693;SDS011;61997;53.974;11.670;2023-07-31T00:06:49;4.20;;;2.53;;
73693;SDS011;61997;53.974;11.670;2023-07-31T00:09:38;3.90;;;2.35;;
73693;SDS011;61997;53.974;11.670;2023-07-31T00:12:20;4.60;;;2.20;;
73693;SDS011;61997;53.974;11.670;2023-07-31T00:15:00;4.20;;;2.28;;
73693;SDS011;61997;53.974;11.670;2023-07-31T00:17:40;3.22;;;2.20;;
73693;SDS011;61997;53.974;11.670;2023-07-31T00:20:17;3.55;;;2.10;;
73693;SDS011;61997;53.974;11.670;2023-07-31T00:22:59;4.25;;;2.20;;
73693;SDS011;61997;53.974;11.670;2023-07-31T00:28:08;3.30;;;1.80;;
73693;SDS011;61997;53.974;11.670;2023-07-31T00:30:53;2.78;;;1.73;;
73693;SDS011;61997;53.974;11.670;2023-07-31T00:33:42;3.95;;;1.92;;
73693;SDS011;61997;53.974;11.670;2023-07-31T00:36:19;4.32;;;1.92;;
73693;SDS011;61997;53.974;11.670;2023-07-31T00:39:05;3.38;;;1.75;;
73693;SDS011;61997;53.974;11.670;2023-07-31T00:41:39;3.03;;;1.52;;
73693;SDS011;61997;53.974;11.670;2023-07-31T00:44:21;3.00;;;1.50;;
73693;SDS011;61997;53.974;11.670;2023-07-31T00:46:58;3.15;;;1.65;;
73693;SDS011;61997;53.974;11.670;2023-07-31T00:49:47;3.63;;;1.77;;
73693;SDS011;61997;53.974;11.670;2023-07-31T00:52:20;2.50;;;1.40;;
73693;SDS011;61997;53.974;11.670;2023-07-31T00:55:03;2.97;;;1.88;;
73693;SDS011;61997;53.974;11.670;2023-07-31T00:57:34;2.63;;;1.50;;
73693;SDS011;61997;53.974;11.670;2023-07-31T01:00:24;2.70;;;1.65;;
73693;SDS011;61997;53.974;11.670;2023-07-31T01:02:57;3.15;;;1.48;;
73693;SDS011;61997;53.974;11.670;2023-07-31T01:05:49;3.10;;;1.52;;
73693;SDS011;61997;53.974;11.670;2023-07-31T01:08:48;2.67;;;1.17;;
73693;SDS011;61997;53.974;11.670;2023-07-31T01:11:37;2.40;;;1.20;;
73693;SDS011;61997;53.974;11.670;2023-07-31T01:14:19;2.50;;;1.40;;
73693;SDS011;61997;53.974;11.670;2023-07-31T01:16:59;2.20;;;1.42;;
73693;SDS011;61997;53.974;11.670;2023-07-31T01:19:36;1.90;;;1.00;;
73693;SDS011;61997;53.974;11.670;2023-07-31T01:22:23;2.25;;;1.40;;
73693;SDS011;61997;53.974;11.670;2023-07-31T01:28:25;2.92;;;1.23;;
73693;SDS011;61997;53.974;11.670;2023-07-31T01:31:05;2.17;;;1.10;;
73693;SDS011;61997;53.974;11.670;2023-07-31T01:33:53;2.28;;;1.00;;
73693;SDS011;61997;53.974;11.670;2023-07-31T01:36:29;1.98;;;1.10;;
73693;SDS011;61997;53.974;11.670;2023-07-31T01:39:08;2.28;;;1.25;;
73693;SDS011;61997;53.974;11.670;2023-07-31T01:41:49;2.25;;;1.23;;
73693;SDS011;61997;53.974;11.670;2023-07-31T01:44:23;2.53;;;1.20;;
73693;SDS011;61997;53.974;11.670;2023-07-31T01:46:55;1.95;;;1.30;;
73693;SDS011;61997;53.974;11.670;2023-07-31T01:49:26;1.88;;;1.10;;
73693;SDS011;61997;53.974;11.670;2023-07-31T01:52:16;3.22;;;1.40;;
73693;SDS011;61997;53.974;11.670;2023-07-31T01:54:56;2.13;;;1.15;;
73693;SDS011;61997;53.974;11.670;2023-07-31T01:57:36;2.50;;;1.10;;
73693;SDS011;61997;53.974;11.670;2023-07-31T02:00:08;1.90;;;1.27;;
73693;SDS011;61997;53.974;11.670;2023-07-31T02:02:41;2.28;;;1.02;;
73693;SDS011;61997;53.974;11.670;2023-07-31T02:05:21;1.35;;;1.00;;
73693;SDS011;61997;53.974;11.670;2023-07-31T02:07:58;1.98;;;0.90;;
73693;SDS011;61997;53.974;11.670;2023-07-31T02:10:37;2.13;;;1.08;;
73693;SDS011;61997;53.974;11.670;2023-07-31T02:13:12;1.73;;;0.80;;
73693;SDS011;61997;53.974;11.670;2023-07-31T02:15:50;1.95;;;0.98;;
73693;SDS011;61997;53.974;11.670;2023-07-31T02:18:16;2.05;;;1.00;;
73693;SDS011;61997;53.974;11.670;2023-07-31T02:20:49;3.03;;;1.20;;
73693;SDS011;61997;53.974;11.670;2023-07-31T02:23:19;1.75;;;0.85;;
73693;SDS011;61997;53.974;11.670;2023-07-31T02:25:48;1.52;;;0.80;;
73693;SDS011;61997;53.974;11.670;2023-07-31T02:28:17;1.77;;;0.93;;
73693;SDS011;61997;53.974;11.670;2023-07-31T02:30:45;1.45;;;1.00;;
73693;SDS011;61997;53.974;11.670;2023-07-31T02:33:17;1.98;;;1.27;;
73693;SDS011;61997;53.974;11.670;2023-07-31T02:35:43;2.15;;;0.90;;
73693;SDS011;61997;53.974;11.670;2023-07-31T02:38:14;1.52;;;0.82;;
73693;SDS011;61997;53.974;11.670;2023-07-31T02:40:51;2.63;;;0.90;;
73693;SDS011;61997;53.974;11.670;2023-07-31T02:43:33;1.80;;;0.80;;
73693;SDS011;61997;53.974;11.670;2023-07-31T02:46:07;1.73;;;1.02;;
73693;SDS011;61997;53.974;11.670;2023-07-31T02:48:43;1.75;;;0.70;;
73693;SDS011;61997;53.974;11.670;2023-07-31T02:53:49;1.77;;;0.80;;
73693;SDS011;61997;53.974;11.670;2023-07-31T02:56:26;1.13;;;0.75;;
73693;SDS011;61997;53.974;11.670;2023-07-31T02:59:03;2.22;;;1.00;;
73693;SDS011;61997;53.974;11.670;2023-07-31T03:01:31;2.00;;;0.80;;
73693;SDS011;61997;53.974;11.670;2023-07-31T03:04:02;2.25;;;0.90;;
73693;SDS011;61997;53.974;11.670;2023-07-31T03:06:51;1.90;;;0.77;;
73693;SDS011;61997;53.974;11.670;2023-07-31T03:09:28;1.70;;;0.98;;
73693;SDS011;61997;53.974;11.670;2023-07-31T03:12:13;1.38;;;0.57;;
73693;SDS011;61997;53.974;11.670;2023-07-31T03:14:51;2.25;;;1.05;;
73693;SDS011;61997;53.974;11.670;2023-07-31T03:17:33;1.88;;;0.70;;
73693;SDS011;61997;53.974;11.670;2023-07-31T03:20:13;2.25;;;0.80;;
73693;SDS011;61997;53.974;11.670;2023-07-31T03:22:49;1.60;;;0.77;;
73693;SDS011;61997;53.974;11.670;2023-07-31T03:25:36;1.98;;;0.95;;
73693;SDS011;61997;53.974;11.670;2023-07-31T03:28:09;3.20;;;1.20;;
73693;SDS011;61997;53.974;11.670;2023-07-31T03:30:57;1.88;;;0.70;;
73693;SDS011;61997;53.974;11.670;2023-07-31T03:33:29;1.92;;;0.70;;
73693;SDS011;61997;53.974;11.670;2023-07-31T03:36:19;2.20;;;0.75;;
73693;SDS011;61997;53.974;11.670;2023-07-31T03:38:51;1.10;;;0.63;;
73693;SDS011;61997;53.974;11.670;2023-07-31T03:41:39;2.90;;;0.75;;
73693;SDS011;61997;53.974;11.670;2023-07-31T03:44:23;1.13;;;0.68;;
73693;SDS011;61997;53.974;11.670;2023-07-31T03:47:05;1.20;;;0.60;;
73693;SDS011;61997;53.974;11.670;2023-07-31T03:49:50;1.77;;;0.70;;
73693;SDS011;61997;53.974;11.670;2023-07-31T03:52:25;1.40;;;0.70;;
73693;SDS011;61997;53.974;11.670;2023-07-31T03:55:09;1.58;;;0.80;;
73693;SDS011;61997;53.974;11.670;2023-07-31T03:57:37;1.30;;;0.82;;
73693;SDS011;61997;53.974;11.670;2023-07-31T04:00:03;2.05;;;0.60;;
73693;SDS011;61997;53.974;11.670;2023-07-31T04:02:29;2.05;;;1.05;;
73693;SDS011;61997;53.974;11.670;2023-07-31T04:05:02;1.45;;;0.80;;
73693;SDS011;61997;53.974;11.670;2023-07-31T04:07:29;1.65;;;0.70;;
73693;SDS011;61997;53.974;11.670;2023-07-31T04:09:55;1.00;;;0.60;;
73693;SDS011;61997;53.974;11.670;2023-07-31T04:12:21;2.50;;;1.00;;
73693;SDS011;61997;53.974;11.670;2023-07-31T04:14:51;1.50;;;0.90;;
73693;SDS011;61997;53.974;11.670;2023-07-31T04:17:22;1.63;;;0.85;;
73693;SDS011;61997;53.974;11.670;2023-07-31T04:19:52;1.75;;;0.88;;
73693;SDS011;61997;53.974;11.670;2023-07-31T04:22:22;2.58;;;0.75;;
73693;SDS011;61997;53.974;11.670;2023-07-31T04:24:51;2.90;;;1.20;;
73693;SDS011;61997;53.974;11.670;2023-07-31T04:27:20;2.65;;;1.00;;
73693;SDS011;61997;53.974;11.670;2023-07-31T04:29:49;2.15;;;0.88;;
73693;SDS011;61997;53.974;11.670;2023-07-31T04:32:16;1.55;;;0.90;;
73693;SDS011;61997;53.974;11.670;2023-07-31T04:34:45;2.58;;;0.93;;
73693;SDS011;61997;53.974;11.670;2023-07-31T04:37:16;1.73;;;0.85;;
73693;SDS011;61997;53.974;11.670;2023-07-31T04:39:43;2.75;;;0.93;;
73693;SDS011;61997;53.974;11.670;2023-07-31T04:42:13;1.38;;;0.70;;
73693;SDS011;61997;53.974;11.670;2023-07-31T04:44:40;1.15;;;0.70;;
73693;SDS011;61997;53.974;11.670;2023-07-31T04:47:10;1.40;;;0.82;;
73693;SDS011;61997;53.974;11.670;2023-07-31T04:49:39;1.98;;;1.05;;
73693;SDS011;61997;53.974;11.670;2023-07-31T04:52:07;1.70;;;0.80;;
73693;SDS011;61997;53.974;11.670;2023-07-31T04:54:36;2.92;;;1.10;;
73693;SDS011;61997;53.974;11.670;2023-07-31T04:57:02;1.88;;;0.80;;
73693;SDS011;61997;53.974;11.670;2023-07-31T04:59:35;1.83;;;0.90;;
73693;SDS011;61997;53.974;11.670;2023-07-31T05:02:02;3.22;;;0.77;;
73693;SDS011;61997;53.974;11.670;2023-07-31T05:04:33;1.50;;;0.80;;
73693;SDS011;61997;53.974;11.670;2023-07-31T05:07:15;1.77;;;0.93;;
73693;SDS011;61997;53.974;11.670;2023-07-31T05:09:50;1.83;;;0.70;;
73693;SDS011;61997;53.974;11.670;2023-07-31T05:12:17;1.58;;;0.80;;
73693;SDS011;61997;53.974;11.670;2023-07-31T05:14:43;2.00;;;0.82;;
73693;SDS011;61997;53.974;11.670;2023-07-31T05:17:11;2.05;;;0.90;;
73693;SDS011;61997;53.974;11.670;2023-07-31T05:19:39;2.40;;;1.10;;
73693;SDS011;61997;53.974;11.670;2023-07-31T05:22:05;1.42;;;1.08;;
73693;SDS011;61997;53.974;11.670;2023-07-31T05:24:32;2.65;;;1.00;;
73693;SDS011;61997;53.974;11.670;2023-07-31T05:26:59;2.13;;;0.80;;
73693;SDS011;61997;53.974;11.670;2023-07-31T05:29:28;3.03;;;1.20;;
73693;SDS011;61997;53.974;11.670;2023-07-31T05:31:54;1.95;;;1.00;;
73693;SDS011;61997;53.974;11.670;2023-07-31T05:34:20;1.88;;;1.17;;
73693;SDS011;61997;53.974;11.670;2023-07-31T05:36:47;1.60;;;1.10;;
73693;SDS011;61997;53.974;11.670;2023-07-31T05:39:14;1.73;;;1.10;;
73693;SDS011;61997;53.974;11.670;2023-07-31T05:41:42;1.90;;;0.98;;
73693;SDS011;61997;53.974;11.670;2023-07-31T05:44:08;2.65;;;0.82;;
73693;SDS011;61997;53.974;11.670;2023-07-31T05:46:38;1.70;;;0.90;;
73693;SDS011;61997;53.974;11.670;2023-07-31T05:49:04;1.58;;;0.80;;
73693;SDS011;61997;53.974;11.670;2023-07-31T05:51:31;1.50;;;0.85;;
73693;SDS011;61997;53.974;11.670;2023-07-31T05:53:57;1.95;;;0.82;;
73693;SDS011;61997;53.974;11.670;2023-07-31T05:56:23;2.80;;;1.17;;
73693;SDS011;61997;53.974;11.670;2023-07-31T05:58:50;1.77;;;1.02;;
73693;SDS011;61997;53.974;11.670;2023-07-31T06:01:17;3.15;;;1.00;;
73693;SDS011;61997;53.974;11.670;2023-07-31T06:03:44;2.35;;;0.98;;
73693;SDS011;61997;53.974;11.670;2023-07-31T06:06:10;1.65;;;1.02;;
73693;SDS011;61997;53.974;11.670;2023-07-31T06:08:36;1.67;;;0.90;;
73693;SDS011;61997;53.974;11.670;2023-07-31T06:11:03;2.00;;;1.02;;
73693;SDS011;61997;53.974;11.670;2023-07-31T06:13:29;1.13;;;0.80;;
73693;SDS011;61997;53.974;11.670;2023-07-31T06:15:55;1.52;;;0.90;;
73693;SDS011;61997;53.974;11.670;2023-07-31T06:18:22;2.03;;;1.02;;
73693;SDS011;61997;53.974;11.670;2023-07-31T06:20:48;1.30;;;0.88;;
73693;SDS011;61997;53.974;11.670;2023-07-31T06:23:19;2.47;;;1.20;;
73693;SDS011;61997;53.974;11.670;2023-07-31T06:25:46;1.70;;;0.88;;
73693;SDS011;61997;53.974;11.670;2023-07-31T06:28:12;1.70;;;1.10;;
73693;SDS011;61997;53.974;11.670;2023-07-31T06:30:41;2.72;;;1.40;;
73693;SDS011;61997;53.974;11.670;2023-07-31T06:33:20;1.40;;;1.00;;
73693;SDS011;61997;53.974;11.670;2023-07-31T06:35:58;1.63;;;1.13;;
73693;SDS011;61997;53.974;11.670;2023-07-31T06:38:26;2.08;;;1.10;;
73693;SDS011;61997;53.974;11.670;2023-07-31T06:40:55;2.28;;;1.02;;
73693;SDS011;61997;53.974;11.670;2023-07-31T06:43:30;1.85;;;1.05;;
73693;SDS011;61997;53.974;11.670;2023-07-31T06:45:55;1.92;;;1.00;;
73693;SDS011;61997;53.974;11.670;2023-07-31T06:48:21;2.10;;;1.20;;
73693;SDS011;61997;53.974;11.670;2023-07-31T06:50:48;1.85;;;1.20;;
73693;SDS011;61997;53.974;11.670;2023-07-31T06:53:14;1.92;;;1.15;;
73693;SDS011;61997;53.974;11.670;2023-07-31T06:55:40;2.03;;;1.10;;
73693;SDS011;61997;53.974;11.670;2023-07-31T06:58:06;1.65;;;1.13;;
73693;SDS011;61997;53.974;11.670;2023-07-31T07:00:32;1.30;;;1.02;;
73693;SDS011;61997;53.974;11.670;2023-07-31T07:02:59;1.80;;;1.25;;
73693;SDS011;61997;53.974;11.670;2023-07-31T07:05:25;2.92;;;1.45;;
73693;SDS011;61997;53.974;11.670;2023-07-31T07:07:51;1.50;;;1.20;;
73693;SDS011;61997;53.974;11.670;2023-07-31T07:10:17;2.10;;;1.30;;
73693;SDS011;61997;53.974;11.670;2023-07-31T07:12:43;2.00;;;1.30;;
73693;SDS011;61997;53.974;11.670;2023-07-31T07:15:10;2.28;;;1.30;;
73693;SDS011;61997;53.974;11.670;2023-07-31T07:17:36;2.95;;;1.42;;
73693;SDS011;61997;53.974;11.670;2023-07-31T07:20:05;2.42;;;1.42;;
73693;SDS011;61997;53.974;11.670;2023-07-31T07:22:33;2.05;;;1.50;;
73693;SDS011;61997;53.974;11.670;2023-07-31T07:24:59;2.53;;;1.40;;
73693;SDS011;61997;53.974;11.670;2023-07-31T07:27:25;1.73;;;0.95;;
73693;SDS011;61997;53.974;11.670;2023-07-31T07:29:52;1.50;;;1.27;;
73693;SDS011;61997;53.974;11.670;2023-07-31T07:32:29;2.75;;;1.60;;
73693;SDS011;61997;53.974;11.670;2023-07-31T07:34:59;1.75;;;1.25;;
73693;SDS011;61997;53.974;11.670;2023-07-31T07:37:29;1.77;;;1.23;;
73693;SDS011;61997;53.974;11.670;2023-07-31T07:39:56;2.95;;;1.60;;
73693;SDS011;61997;53.974;11.670;2023-07-31T07:42:34;1.90;;;1.15;;
73693;SDS011;61997;53.974;11.670;2023-07-31T07:45:15;1.95;;;1.33;;
73693;SDS011;61997;53.974;11.670;2023-07-31T07:47:51;2.92;;;1.30;;
73693;SDS011;61997;53.974;11.670;2023-07-31T07:50:29;1.55;;;1.20;;
73693;SDS011;61997;53.974;11.670;2023-07-31T07:53:06;1.85;;;1.27;;
73693;SDS011;61997;53.974;11.670;2023-07-31T07:55:48;1.80;;;1.25;;
73693;SDS011;61997;53.974;11.670;2023-07-31T07:58:23;1.75;;;1.27;;
73693;SDS011;61997;53.974;11.670;2023-07-31T08:01:00;1.90;;;1.30;;
73693;SDS011;61997;53.974;11.670;2023-07-31T08:03:39;1.40;;;1.10;;
73693;SDS011;61997;53.974;11.670;2023-07-31T08:06:14;3.03;;;1.58;;
73693;SDS011;61997;53.974;11.670;2023-07-31T08:08:51;2.35;;;1.40;;
73693;SDS011;61997;53.974;11.670;2023-07-31T08:11:21;1.95;;;1.20;;
73693;SDS011;61997;53.974;11.670;2023-07-31T08:13:49;2.60;;;1.40;;
73693;SDS011;61997;53.974;11.670;2023-07-31T08:16:21;2.80;;;1.30;;
73693;SDS011;61997;53.974;11.670;2023-07-31T08:18:59;1.98;;;1.23;;
73693;SDS011;61997;53.974;11.670;2023-07-31T08:21:31;1.70;;;1.30;;
73693;SDS011;61997;53.974;11.670;2023-07-31T08:24:02;2.13;;;1.30;;
73693;SDS011;61997;53.974;11.670;2023-07-31T08:26:34;2.35;;;1.35;;
73693;SDS011;61997;53.974;11.670;2023-07-31T08:29:14;1.95;;;1.15;;
73693;SDS011;61997;53.974;11.670;2023-07-31T08:31:57;2.03;;;1.38;;
73693;SDS011;61997;53.974;11.670;2023-07-31T08:34:37;1.60;;;1.10;;
73693;SDS011;61997;53.974;11.670;2023-07-31T08:37:12;1.90;;;1.27;;
73693;SDS011;61997;53.974;11.670;2023-07-31T08:39:52;2.45;;;1.50;;
73693;SDS011;61997;53.974;11.670;2023-07-31T08:42:30;2.72;;;1.50;;
73693;SDS011;61997;53.974;11.670;2023-07-31T08:45:03;2.85;;;1.48;;
73693;SDS011;61997;53.974;11.670;2023-07-31T08:47:31;2.40;;;1.30;;
73693;SDS011;61997;53.974;11.670;2023-07-31T08:49:57;1.77;;;1.40;;
73693;SDS011;61997;53.974;11.670;2023-07-31T08:52:23;1.52;;;1.20;;
73693;SDS011;61997;53.974;11.670;2023-07-31T08:54:49;1.80;;;1.40;;
73693;SDS011;61997;53.974;11.670;2023-07-31T08:57:14;1.70;;;1.35;;
73693;SDS011;61997;53.974;11.670;2023-07-31T08:59:41;2.72;;;1.40;;
73693;SDS011;61997;53.974;11.670;2023-07-31T09:02:07;2.40;;;1.20;;
73693;SDS011;61997;53.974;11.670;2023-07-31T09:04:36;2.47;;;1.30;;
73693;SDS011;61997;53.974;11.670;2023-07-31T09:09:30;1.80;;;1.30;;
73693;SDS011;61997;53.974;11.670;2023-07-31T09:11:57;1.88;;;1.30;;
73693;SDS011;61997;53.974;11.670;2023-07-31T09:14:27;1.52;;;1.15;;
73693;SDS011;61997;53.974;11.670;2023-07-31T09:16:57;1.77;;;1.27;;
73693;SDS011;61997;53.974;11.670;2023-07-31T09:19:25;1.98;;;1.10;;
73693;SDS011;61997;53.974;11.670;2023-07-31T09:21:55;1.77;;;1.20;;
73693;SDS011;61997;53.974;11.670;2023-07-31T09:24:28;1.67;;;1.13;;
73693;SDS011;61997;53.974;11.670;2023-07-31T09:26:56;2.20;;;1.10;;
73693;SDS011;61997;53.974;11.670;2023-07-31T09:29:27;2.28;;;1.05;;
73693;SDS011;61997;53.974;11.670;2023-07-31T09:34:27;3.33;;;1.25;;
73693;SDS011;61997;53.974;11.670;2023-07-31T09:37:04;1.50;;;0.88;;
73693;SDS011;61997;53.974;11.670;2023-07-31T09:39:31;1.67;;;1.25;;
73693;SDS011;61997;53.974;11.670;2023-07-31T09:41:57;1.83;;;1.30;;
73693;SDS011;61997;53.974;11.670;2023-07-31T09:44:47;2.38;;;1.25;;
73693;SDS011;61997;53.974;11.670;2023-07-31T09:47:29;1.77;;;1.25;;
73693;SDS011;61997;53.974;11.670;2023-07-31T09:50:08;2.00;;;1.17;;
73693;SDS011;61997;53.974;11.670;2023-07-31T09:52:39;1.67;;;1.15;;
73693;SDS011;61997;53.974;11.670;2023-07-31T09:55:07;3.00;;;1.25;;
73693;SDS011;61997;53.974;11.670;2023-07-31T09:57:52;1.80;;;1.17;;
73693;SDS011;61997;53.974;11.670;2023-07-31T10:00:21;2.20;;;1.20;;
73693;SDS011;61997;53.974;11.670;2023-07-31T10:03:12;1.45;;;1.05;;
73693;SDS011;61997;53.974;11.670;2023-07-31T10:05:54;1.67;;;1.10;;
73693;SDS011;61997;53.974;11.670;2023-07-31T10:08:28;1.90;;;0.90;;
73693;SDS011;61997;53.974;11.670;2023-07-31T10:10:58;2.42;;;1.10;;
73693;SDS011;61997;53.974;11.670;2023-07-31T10:13:31;2.15;;;1.10;;
73693;SDS011;61997;53.974;11.670;2023-07-31T10:15:59;1.98;;;1.20;;
73693;SDS011;61997;53.974;11.670;2023-07-31T10:18:27;1.75;;;1.25;;
73693;SDS011;61997;53.974;11.670;2023-07-31T10:20:54;3.05;;;1.40;;
73693;SDS011;61997;53.974;11.670;2023-07-31T10:23:25;2.42;;;1.25;;
73693;SDS011;61997;53.974;11.670;2023-07-31T10:25:55;1.85;;;1.10;;
73693;SDS011;61997;53.974;11.670;2023-07-31T10:28:23;1.73;;;1.00;;
73693;SDS011;61997;53.974;11.670;2023-07-31T10:30:52;1.80;;;1.10;;
73693;SDS011;61997;53.974;11.670;2023-07-31T10:33:19;1.70;;;1.08;;
73693;SDS011;61997;53.974;11.670;2023-07-31T10:35:46;1.60;;;1.20;;
73693;SDS011;61997;53.974;11.670;2023-07-31T10:38:13;1.65;;;1.20;;
73693;SDS011;61997;53.974;11.670;2023-07-31T10:40:39;1.63;;;1.13;;
73693;SDS011;61997;53.974;11.670;2023-07-31T10:43:05;1.50;;;1.00;;
73693;SDS011;61997;53.974;11.670;2023-07-31T10:45:34;2.00;;;1.20;;
73693;SDS011;61997;53.974;11.670;2023-07-31T10:50:54;1.30;;;0.90;;
73693;SDS011;61997;53.974;11.670;2023-07-31T10:53:32;1.73;;;1.27;;
73693;SDS011;61997;53.974;11.670;2023-07-31T10:55:59;1.40;;;0.90;;
73693;SDS011;61997;53.974;11.670;2023-07-31T10:58:33;1.75;;;0.90;;
73693;SDS011;61997;53.974;11.670;2023-07-31T11:01:01;1.33;;;0.95;;
73693;SDS011;61997;53.974;11.670;2023-07-31T11:03:47;1.40;;;0.82;;
73693;SDS011;61997;53.974;11.670;2023-07-31T11:06:17;1.45;;;1.05;;
73693;SDS011;61997;53.974;11.670;2023-07-31T11:08:44;2.15;;;1.20;;
73693;SDS011;61997;53.974;11.670;2023-07-31T11:11:12;1.75;;;1.00;;
73693;SDS011;61997;53.974;11.670;2023-07-31T11:13:44;1.70;;;1.08;;
73693;SDS011;61997;53.974;11.670;2023-07-31T11:16:21;1.58;;;0.88;;
73693;SDS011;61997;53.974;11.670;2023-07-31T11:18:50;1.30;;;1.00;;
73693;SDS011;61997;53.974;11.670;2023-07-31T11:21:20;1.85;;;1.17;;
73693;SDS011;61997;53.974;11.670;2023-07-31T11:23:51;1.92;;;1.10;;
73693;SDS011;61997;53.974;11.670;2023-07-31T11:26:18;2.63;;;1.30;;
73693;SDS011;61997;53.974;11.670;2023-07-31T11:28:49;1.55;;;0.98;;
73693;SDS011;61997;53.974;11.670;2023-07-31T11:31:16;2.70;;;1.42;;
73693;SDS011;61997;53.974;11.670;2023-07-31T11:33:43;4.43;;;2.38;;
73693;SDS011;61997;53.974;11.670;2023-07-31T11:36:16;4.55;;;2.75;;
73693;SDS011;61997;53.974;11.670;2023-07-31T11:38:50;3.90;;;2.50;;
73693;SDS011;61997;53.974;11.670;2023-07-31T11:41:20;4.18;;;2.63;;
73693;SDS011;61997;53.974;11.670;2023-07-31T11:43:59;3.75;;;2.38;;
73693;SDS011;61997;53.974;11.670;2023-07-31T11:46:26;3.17;;;1.80;;
73693;SDS011;61997;53.974;11.670;2023-07-31T11:51:49;2.83;;;1.90;;
73693;SDS011;61997;53.974;11.670;2023-07-31T11:54:37;4.20;;;2.35;;
73693;SDS011;61997;53.974;11.670;2023-07-31T11:57:10;3.40;;;2.13;;
73693;SDS011;61997;53.974;11.670;2023-07-31T11:59:42;4.43;;;1.95;;
73693;SDS011;61997;53.974;11.670;2023-07-31T12:02:12;3.92;;;2.10;;
73693;SDS011;61997;53.974;11.670;2023-07-31T12:04:38;4.00;;;2.30;;
73693;SDS011;61997;53.974;11.670;2023-07-31T12:07:05;3.92;;;2.30;;
73693;SDS011;61997;53.974;11.670;2023-07-31T12:09:31;3.60;;;2.50;;
73693;SDS011;61997;53.974;11.670;2023-07-31T12:12:03;3.10;;;2.13;;
73693;SDS011;61997;53.974;11.670;2023-07-31T12:14:43;3.80;;;2.22;;
73693;SDS011;61997;53.974;11.670;2023-07-31T12:17:22;3.17;;;1.95;;
73693;SDS011;61997;53.974;11.670;2023-07-31T12:19:50;4.07;;;2.33;;
73693;SDS011;61997;53.974;11.670;2023-07-31T12:22:16;3.85;;;2.38;;
73693;SDS011;61997;53.974;11.670;2023-07-31T12:24:43;3.58;;;2.08;;
73693;SDS011;61997;53.974;11.670;2023-07-31T12:27:23;3.25;;;1.85;;
73693;SDS011;61997;53.974;11.670;2023-07-31T12:29:53;3.13;;;1.88;;
73693;SDS011;61997;53.974;11.670;2023-07-31T12:32:29;4.28;;;2.15;;
73693;SDS011;61997;53.974;11.670;2023-07-31T12:34:59;3.92;;;2.40;;
73693;SDS011;61997;53.974;11.670;2023-07-31T12:37:26;3.40;;;2.35;;
73693;SDS011;61997;53.974;11.670;2023-07-31T12:39:53;4.28;;;2.70;;
73693;SDS011;61997;53.974;11.670;2023-07-31T12:42:19;3.60;;;2.30;;
73693;SDS011;61997;53.974;11.670;2023-07-31T12:44:45;3.22;;;2.03;;
73693;SDS011;61997;53.974;11.670;2023-07-31T12:47:10;3.50;;;2.40;;
73693;SDS011;61997;53.974;11.670;2023-07-31T12:49:45;3.67;;;2.45;;
73693;SDS011;61997;53.974;11.670;2023-07-31T12:52:14;2.70;;;1.98;;
73693;SDS011;61997;53.974;11.670;2023-07-31T12:54:42;3.47;;;2.10;;
73693;SDS011;61997;53.974;11.670;2023-07-31T12:57:09;3.22;;;1.83;;
73693;SDS011;61997;53.974;11.670;2023-07-31T12:59:37;2.75;;;1.95;;
73693;SDS011;61997;53.974;11.670;2023-07-31T13:02:06;3.30;;;2.10;;
73693;SDS011;61997;53.974;11.670;2023-07-31T13:04:37;3.50;;;2.38;;
73693;SDS011;61997;53.974;11.670;2023-07-31T13:07:06;3.45;;;2.28;;
73693;SDS011;61997;53.974;11.670;2023-07-31T13:09:31;2.55;;;1.83;;
73693;SDS011;61997;53.974;11.670;2023-07-31T13:11:58;3.45;;;2.08;;
73693;SDS011;61997;53.974;11.670;2023-07-31T13:14:33;3.20;;;1.90;;
73693;SDS011;61997;53.974;11.670;2023-07-31T13:17:04;2.90;;;1.77;;
73693;SDS011;61997;53.974;11.670;2023-07-31T13:19:30;3.33;;;2.10;;
73693;SDS011;61997;53.974;11.670;2023-07-31T13:21:58;2.72;;;2.00;;
73693;SDS011;61997;53.974;11.670;2023-07-31T13:24:30;3.05;;;1.90;;
73693;SDS011;61997;53.974;11.670;2023-07-31T13:27:01;3.40;;;1.98;;
73693;SDS011;61997;53.974;11.670;2023-07-31T13:29:29;3.95;;;2.05;;
73693;SDS011;61997;53.974;11.670;2023-07-31T13:31:57;2.60;;;1.52;;
73693;SDS011;61997;53.974;11.670;2023-07-31T13:34:23;2.70;;;1.70;;
73693;SDS011;61997;53.974;11.670;2023-07-31T13:36:50;3.25;;;1.77;;
73693;SDS011;61997;53.974;11.670;2023-07-31T13:39:20;2.97;;;1.70;;
73693;SDS011;61997;53.974;11.670;2023-07-31T13:41:54;3.33;;;2.05;;
73693;SDS011;61997;53.974;11.670;2023-07-31T13:44:22;3.50;;;2.60;;
73693;SDS011;61997;53.974;11.670;2023-07-31T13:46:47;6.03;;;3.70;;
73693;SDS011;61997;53.974;11.670;2023-07-31T13:51:42;6.00;;;3.72;;
73693;SDS011;61997;53.974;11.670;2023-07-31T13:54:09;5.53;;;3.25;;
73693;SDS011;61997;53.974;11.670;2023-07-31T13:56:39;7.20;;;4.25;;
73693;SDS011;61997;53.974;11.670;2023-07-31T13:59:07;6.15;;;4.00;;
73693;SDS011;61997;53.974;11.670;2023-07-31T14:01:39;6.38;;;3.50;;
73693;SDS011;61997;53.974;11.670;2023-07-31T14:04:23;5.15;;;3.05;;
73693;SDS011;61997;53.974;11.670;2023-07-31T14:07:01;4.93;;;3.38;;
73693;SDS011;61997;53.974;11.670;2023-07-31T14:09:40;6.10;;;3.42;;
73693;SDS011;61997;53.974;11.670;2023-07-31T14:12:28;5.63;;;3.17;;
73693;SDS011;61997;53.974;11.670;2023-07-31T14:15:07;4.25;;;3.08;;
73693;SDS011;61997;53.974;11.670;2023-07-31T14:17:33;5.07;;;2.97;;
73693;SDS011;61997;53.974;11.670;2023-07-31T14:20:01;3.42;;;2.53;;
73693;SDS011;61997;53.974;11.670;2023-07-31T14:22:28;5.68;;;3.10;;
73693;SDS011;61997;53.974;11.670;2023-07-31T14:24:55;3.53;;;2.60;;
73693;SDS011;61997;53.974;11.670;2023-07-31T14:27:20;4.22;;;2.50;;
73693;SDS011;61997;53.974;11.670;2023-07-31T14:29:46;4.65;;;2.78;;
73693;SDS011;61997;53.974;11.670;2023-07-31T14:32:14;4.20;;;3.10;;
73693;SDS011;61997;53.974;11.670;2023-07-31T14:34:40;6.05;;;2.90;;
73693;SDS011;61997;53.974;11.670;2023-07-31T14:37:07;4.25;;;2.85;;
73693;SDS011;61997;53.974;11.670;2023-07-31T14:39:33;3.58;;;2.47;;
73693;SDS011;61997;53.974;11.670;2023-07-31T14:42:00;5.03;;;2.72;;
73693;SDS011;61997;53.974;11.670;2023-07-31T14:44:27;3.92;;;2.17;;
73693;SDS011;61997;53.974;11.670;2023-07-31T14:46:53;3.97;;;2.00;;
73693;SDS011;61997;53.974;11.670;2023-07-31T14:49:20;2.97;;;2.00;;
73693;SDS011;61997;53.974;11.670;2023-07-31T14:51:47;3.45;;;2.17;;
73693;SDS011;61997;53.974;11.670;2023-07-31T14:54:13;4.45;;;1.95;;
73693;SDS011;61997;53.974;11.670;2023-07-31T14:56:44;4.07;;;2.45;;
73693;SDS011;61997;53.974;11.670;2023-07-31T14:59:29;3.92;;;2.20;;
73693;SDS011;61997;53.974;11.670;2023-07-31T15:02:09;3.05;;;2.10;;
73693;SDS011;61997;53.974;11.670;2023-07-31T15:04:45;3.85;;;2.20;;
73693;SDS011;61997;53.974;11.670;2023-07-31T15:07:23;5.47;;;3.92;;
73693;SDS011;61997;53.974;11.670;2023-07-31T15:10:14;4.07;;;2.58;;
73693;SDS011;61997;53.974;11.670;2023-07-31T15:12:45;3.55;;;2.20;;
73693;SDS011;61997;53.974;11.670;2023-07-31T15:15:21;3.60;;;2.15;;
73693;SDS011;61997;53.974;11.670;2023-07-31T15:17:56;4.60;;;2.45;;
73693;SDS011;61997;53.974;11.670;2023-07-31T15:20:31;4.60;;;2.60;;
73693;SDS011;61997;53.974;11.670;2023-07-31T15:23:17;4.20;;;2.15;;
73693;SDS011;61997;53.974;11.670;2023-07-31T15:25:54;4.15;;;2.50;;